createdAt,value
2019-01-15T00:00:05.771Z,89.26
2019-01-15T00:02:35.093Z,89.35
2019-01-15T00:05:03.188Z,88.85
2019-01-15T00:07:31.264Z,88.94
2019-01-15T00:09:58.887Z,89.15
2019-01-15T00:12:27.789Z,89.35
2019-01-15T00:14:55.378Z,88.87
2019-01-15T00:17:23.002Z,89.19
2019-01-15T00:19:52.186Z,89.22
2019-01-15T00:22:19.764Z,89.55
2019-01-15T00:24:47.362Z,89.64
2019-01-15T00:27:15.021Z,89.78
2019-01-15T00:29:42.590Z,90.44
2019-01-15T00:32:10.197Z,90.76
2019-01-15T00:34:37.837Z,90.85
2019-01-15T00:37:05.525Z,90.54
2019-01-15T00:39:33.346Z,90.05
2019-01-15T00:42:01.086Z,89.80
2019-01-15T00:44:28.810Z,88.93
2019-01-15T00:46:56.630Z,87.92
2019-01-15T00:49:26.875Z,86.99
2019-01-15T00:51:54.653Z,86.16
2019-01-15T00:54:22.369Z,84.51
2019-01-15T00:56:51.875Z,85.07
2019-01-15T00:59:19.674Z,85.03
2019-01-15T01:01:47.447Z,84.63
2019-01-15T01:04:15.096Z,83.49
2019-01-15T01:06:42.796Z,83.00
2019-01-15T01:09:11.623Z,82.02
2019-01-15T01:11:39.414Z,79.87
2019-01-15T01:14:07.190Z,79.87
2019-01-15T01:16:34.955Z,78.62
2019-01-15T01:19:02.699Z,81.73
2019-01-15T01:21:30.348Z,83.81
2019-01-15T01:23:58.050Z,83.28
2019-01-15T01:26:25.726Z,81.26
2019-01-15T01:28:53.376Z,81.12
2019-01-15T01:31:20.984Z,81.36
2019-01-15T01:33:48.587Z,81.19
2019-01-15T01:36:16.181Z,80.20
2019-01-15T01:38:43.742Z,80.08
2019-01-15T01:41:11.382Z,80.04
2019-01-15T01:43:38.972Z,79.29
2019-01-15T01:46:06.635Z,82.57
2019-01-15T01:48:34.268Z,84.25
2019-01-15T01:51:02.948Z,84.55
2019-01-15T01:53:30.552Z,84.83
2019-01-15T01:55:58.311Z,84.41
2019-01-15T01:58:25.911Z,83.79
2019-01-15T02:00:53.645Z,83.55
2019-01-15T02:03:21.249Z,83.58
2019-01-15T02:05:48.978Z,83.20
2019-01-15T02:08:18.370Z,82.45
2019-01-15T02:10:46.094Z,82.44
2019-01-15T02:13:13.843Z,82.10
2019-01-15T02:15:41.600Z,81.71
2019-01-15T02:18:09.244Z,81.25
2019-01-15T02:20:37.020Z,80.89
2019-01-15T02:23:04.763Z,80.45
2019-01-15T02:25:32.564Z,79.90
2019-01-15T02:28:00.184Z,80.38
2019-01-15T02:30:27.896Z,81.56
2019-01-15T02:32:55.757Z,82.07
2019-01-15T02:35:23.460Z,83.25
2019-01-15T02:37:51.194Z,83.48
2019-01-15T02:40:18.968Z,83.66
2019-01-15T02:42:47.298Z,84.04
2019-01-15T02:45:17.783Z,84.22
2019-01-15T02:47:45.798Z,83.95
2019-01-15T02:50:16.199Z,83.77
2019-01-15T02:52:43.872Z,83.44
2019-01-15T02:55:11.670Z,83.02
2019-01-15T02:57:39.426Z,82.50
2019-01-15T03:00:13.436Z,82.07
2019-01-15T03:02:41.110Z,81.09
2019-01-15T03:05:09.755Z,80.79
2019-01-15T03:07:37.471Z,80.31
2019-01-15T03:10:07.537Z,81.15
2019-01-15T03:12:35.454Z,80.38
2019-01-15T03:15:03.902Z,80.40
2019-01-15T03:17:32.765Z,80.73
2019-01-15T03:20:00.463Z,80.65
2019-01-15T03:22:28.122Z,80.71
2019-01-15T03:24:56.863Z,80.73
2019-01-15T03:27:24.582Z,80.74
2019-01-15T03:29:52.252Z,81.18
2019-01-15T03:32:19.860Z,82.51
2019-01-15T03:34:47.531Z,83.02
2019-01-15T03:37:15.211Z,83.64
2019-01-15T03:39:43.017Z,83.95
2019-01-15T03:42:10.688Z,83.54
2019-01-15T03:44:38.411Z,83.16
2019-01-15T03:47:05.933Z,84.05
2019-01-15T03:49:33.615Z,83.54
2019-01-15T03:52:01.295Z,83.40
2019-01-15T03:54:31.625Z,83.96
2019-01-15T03:56:59.229Z,84.87
2019-01-15T03:59:27.106Z,84.78
2019-01-15T04:01:54.735Z,84.34
2019-01-15T04:04:22.410Z,84.52
2019-01-15T04:06:50.000Z,85.21
2019-01-15T04:09:17.699Z,85.27
2019-01-15T04:11:45.248Z,85.62
2019-01-15T04:14:13.043Z,85.57
2019-01-15T04:16:40.728Z,85.74
2019-01-15T04:19:09.701Z,85.51
2019-01-15T04:21:40.079Z,85.89
2019-01-15T04:24:07.787Z,85.56
2019-01-15T04:26:35.437Z,85.48
2019-01-15T04:29:03.238Z,85.27
2019-01-15T04:31:30.946Z,85.09
2019-01-15T04:33:58.637Z,85.30
2019-01-15T04:36:26.376Z,85.55
2019-01-15T04:38:54.148Z,85.76
2019-01-15T04:41:22.989Z,86.15
2019-01-15T04:43:50.563Z,85.65
2019-01-15T04:46:19.882Z,85.85
2019-01-15T04:48:47.613Z,86.18
2019-01-15T04:51:15.373Z,86.43
2019-01-15T04:53:43.144Z,86.21
2019-01-15T04:56:10.795Z,86.55
2019-01-15T04:58:38.449Z,86.71
2019-01-15T05:01:06.115Z,86.65
2019-01-15T05:03:33.694Z,86.61
2019-01-15T05:06:01.425Z,86.59
2019-01-15T05:08:29.127Z,86.95
2019-01-15T05:10:56.800Z,86.73
2019-01-15T05:13:27.564Z,86.69
2019-01-15T05:15:53.847Z,86.39
2019-01-15T05:18:24.012Z,85.94
2019-01-15T05:20:51.697Z,86.82
2019-01-15T05:23:19.323Z,86.37
2019-01-15T05:25:47.025Z,86.46
2019-01-15T05:28:14.960Z,86.48
2019-01-15T05:30:42.626Z,86.53
2019-01-15T05:33:10.190Z,86.63
2019-01-15T05:35:40.626Z,86.48
2019-01-15T05:38:08.250Z,86.52
2019-01-15T05:40:36.018Z,86.65
2019-01-15T05:43:03.891Z,86.56
2019-01-15T05:45:33.869Z,86.75
2019-01-15T05:48:06.046Z,87.45
2019-01-15T05:50:39.390Z,87.50
2019-01-15T05:53:07.029Z,87.37
2019-01-15T05:55:34.738Z,86.86
2019-01-15T05:58:02.292Z,86.80
2019-01-15T06:00:29.928Z,86.78
2019-01-15T06:02:57.612Z,86.73
2019-01-15T06:05:25.397Z,87.04
2019-01-15T06:07:53.014Z,86.92
2019-01-15T06:10:20.771Z,86.68
2019-01-15T06:12:48.339Z,86.97
2019-01-15T06:15:16.144Z,86.41
2019-01-15T06:17:43.697Z,86.38
2019-01-15T06:20:12.745Z,86.39
2019-01-15T06:22:40.522Z,85.98
2019-01-15T06:25:08.628Z,86.23
2019-01-15T06:27:36.388Z,86.51
2019-01-15T06:30:07.159Z,86.27
2019-01-15T06:32:34.755Z,86.81
2019-01-15T06:35:02.625Z,86.44
2019-01-15T06:37:30.288Z,86.43
2019-01-15T06:39:57.945Z,86.99
2019-01-15T06:42:25.568Z,87.01
2019-01-15T06:44:53.324Z,86.96
2019-01-15T06:47:21.133Z,86.95
2019-01-15T06:49:48.835Z,86.76
2019-01-15T06:52:16.465Z,87.00
2019-01-15T06:54:44.260Z,86.56
2019-01-15T06:57:12.028Z,86.46
2019-01-15T06:59:39.785Z,86.46
2019-01-15T07:02:07.697Z,86.19
2019-01-15T07:04:35.405Z,86.50
2019-01-15T07:07:02.981Z,86.16
2019-01-15T07:09:32.636Z,85.94
2019-01-15T07:12:00.330Z,85.55
2019-01-15T07:14:28.968Z,84.74
2019-01-15T07:16:57.063Z,83.88
2019-01-15T07:19:24.763Z,83.24
2019-01-15T07:21:52.656Z,83.05
2019-01-15T07:24:20.326Z,83.25
2019-01-15T07:26:48.025Z,83.89
2019-01-15T07:29:15.761Z,83.60
2019-01-15T07:31:43.385Z,83.65
2019-01-15T07:34:11.106Z,83.90
2019-01-15T07:36:38.702Z,83.96
2019-01-15T07:39:08.299Z,84.14
2019-01-15T07:41:35.948Z,84.53
2019-01-15T07:44:04.408Z,84.12
2019-01-15T07:46:32.205Z,83.91
2019-01-15T07:48:59.784Z,84.07
2019-01-15T07:51:27.440Z,83.97
2019-01-15T07:53:54.993Z,84.54
2019-01-15T07:56:22.764Z,84.17
2019-01-15T07:58:50.317Z,82.96
2019-01-15T08:01:19.945Z,80.98
2019-01-15T08:03:47.620Z,81.82
2019-01-15T08:06:15.234Z,81.42
2019-01-15T08:08:42.817Z,80.80
2019-01-15T08:11:10.535Z,81.13
2019-01-15T08:13:38.135Z,81.10
2019-01-15T08:16:05.778Z,80.76
2019-01-15T08:18:33.391Z,80.80
2019-01-15T08:21:01.052Z,80.66
2019-01-15T08:23:28.655Z,80.62
2019-01-15T08:25:56.335Z,79.76
2019-01-15T08:28:23.937Z,79.26
2019-01-15T08:30:51.613Z,80.50
2019-01-15T08:33:19.327Z,79.95
2019-01-15T08:35:47.022Z,79.79
2019-01-15T08:38:14.579Z,79.21
2019-01-15T08:40:42.301Z,78.51
2019-01-15T08:43:09.838Z,79.15
2019-01-15T08:45:37.544Z,78.71
2019-01-15T08:48:11.959Z,76.67
2019-01-15T08:50:39.851Z,77.35
2019-01-15T08:53:07.861Z,77.14
2019-01-15T08:55:35.634Z,77.46
2019-01-15T08:58:03.896Z,75.95
2019-01-15T09:00:31.568Z,73.97
2019-01-15T09:02:59.137Z,73.78
2019-01-15T09:05:26.782Z,73.63
2019-01-15T09:07:54.371Z,73.30
2019-01-15T09:10:22.030Z,73.37
2019-01-15T09:12:49.694Z,72.63
2019-01-15T09:15:17.405Z,71.41
2019-01-15T09:17:44.975Z,71.16
2019-01-15T09:20:14.976Z,70.83
2019-01-15T09:22:43.737Z,71.52
2019-01-15T09:25:11.463Z,72.34
2019-01-15T09:27:41.758Z,72.40
2019-01-15T09:30:12.667Z,72.21
2019-01-15T09:32:40.233Z,72.43
2019-01-15T09:35:08.868Z,72.23
2019-01-15T09:37:36.630Z,71.62
2019-01-15T09:40:05.333Z,71.37
2019-01-15T09:42:32.876Z,70.17
2019-01-15T09:45:00.763Z,68.10
2019-01-15T09:47:28.331Z,67.70
2019-01-15T09:49:56.144Z,67.27
2019-01-15T09:52:24.191Z,66.04
2019-01-15T09:54:52.246Z,64.40
2019-01-15T09:57:19.787Z,63.32
2019-01-15T09:59:47.462Z,63.62
2019-01-15T10:02:16.147Z,62.71
2019-01-15T10:04:43.909Z,63.75
2019-01-15T10:07:11.524Z,62.53
2019-01-15T10:09:42.248Z,61.82
2019-01-15T10:12:09.879Z,60.78
2019-01-15T10:14:41.401Z,60.05
2019-01-15T10:17:07.123Z,59.34
2019-01-15T10:19:34.734Z,60.41
2019-01-15T10:22:03.787Z,60.11
2019-01-15T10:24:31.818Z,59.94
2019-01-15T10:26:59.658Z,59.83
2019-01-15T10:29:28.087Z,59.20
2019-01-15T10:32:37.645Z,57.90
2019-01-15T10:35:13.720Z,56.13
2019-01-15T10:37:41.448Z,55.81
2019-01-15T10:40:09.030Z,54.64
2019-01-15T10:42:36.776Z,53.76
2019-01-15T10:45:05.407Z,53.07
2019-01-15T10:47:33.053Z,52.38
2019-01-15T10:50:00.686Z,51.67
2019-01-15T10:52:28.334Z,52.14
2019-01-15T10:54:56.132Z,52.05
2019-01-15T10:57:23.738Z,52.53
2019-01-15T10:59:51.413Z,51.63
2019-01-15T11:02:19.049Z,51.13
2019-01-15T11:04:46.725Z,51.00
2019-01-15T11:07:14.296Z,50.01
2019-01-15T11:09:41.957Z,50.43
2019-01-15T11:12:09.616Z,51.52
2019-01-15T11:14:37.702Z,49.95
2019-01-15T11:17:05.291Z,50.17
2019-01-15T11:19:33.085Z,47.79
2019-01-15T11:22:00.696Z,47.67
2019-01-15T11:24:29.456Z,47.97
2019-01-15T11:26:57.040Z,47.33
2019-01-15T11:29:24.663Z,47.67
2019-01-15T11:31:52.310Z,45.41
2019-01-15T11:34:19.913Z,45.33
2019-01-15T11:36:47.489Z,44.79
2019-01-15T11:39:15.108Z,44.20
2019-01-15T11:41:42.698Z,43.55
2019-01-15T11:44:10.327Z,42.76
2019-01-15T11:46:38.014Z,45.49
2019-01-15T11:49:05.555Z,45.79
2019-01-15T11:51:33.207Z,43.42
2019-01-15T11:54:00.868Z,42.90
2019-01-15T11:56:28.629Z,42.95
2019-01-15T11:58:56.810Z,43.63
2019-01-15T12:01:42.758Z,42.50
2019-01-15T12:04:22.706Z,43.77
2019-01-15T12:07:12.471Z,43.84
2019-01-15T12:09:52.741Z,44.50
2019-01-15T12:12:49.103Z,45.38
2019-01-15T12:15:42.091Z,46.22
2019-01-15T12:18:22.544Z,45.08
2019-01-15T12:21:09.748Z,44.82
2019-01-15T12:23:58.595Z,44.05
2019-01-15T12:26:40.931Z,44.70
2019-01-15T12:29:28.230Z,44.41
2019-01-15T12:32:13.940Z,43.83
2019-01-15T12:35:19.245Z,44.63
2019-01-15T12:38:12.120Z,44.24
2019-01-15T12:40:57.681Z,44.71
2019-01-15T12:43:47.511Z,45.38
2019-01-15T12:46:52.812Z,44.86
2019-01-15T12:49:47.029Z,44.98
2019-01-15T12:52:45.168Z,44.67
2019-01-15T12:55:38.821Z,44.32
2019-01-15T12:58:32.035Z,45.11
2019-01-15T13:01:14.767Z,44.88
2019-01-15T13:04:07.500Z,44.59
2019-01-15T13:06:52.808Z,45.25
2019-01-15T13:09:32.913Z,45.98
2019-01-15T13:12:20.099Z,46.24
2019-01-15T13:14:59.253Z,46.89
2019-01-15T13:17:43.970Z,46.22
2019-01-15T13:20:24.609Z,45.94
2019-01-15T13:23:02.407Z,46.80
2019-01-15T13:25:55.717Z,46.31
2019-01-15T13:28:34.709Z,47.83
2019-01-15T13:31:24.531Z,48.39
2019-01-15T13:34:21.152Z,45.96
2019-01-15T13:36:57.386Z,48.71
2019-01-15T13:39:44.655Z,49.35
2019-01-15T13:42:32.091Z,48.75
2019-01-15T13:45:12.154Z,48.85
2019-01-15T13:47:58.279Z,47.73
2019-01-15T13:50:43.747Z,46.41
2019-01-15T13:53:24.142Z,46.44
2019-01-15T13:56:19.846Z,46.67
2019-01-15T13:59:05.806Z,46.66
2019-01-15T14:01:52.913Z,47.22
2019-01-15T14:04:43.354Z,47.23
2019-01-15T14:07:39.558Z,46.46
2019-01-15T14:10:31.711Z,46.46
2019-01-15T14:13:12.696Z,45.32
2019-01-15T14:16:11.536Z,43.96
2019-01-15T14:18:50.322Z,44.18
2019-01-15T14:21:37.513Z,43.54
2019-01-15T14:24:24.845Z,42.08
2019-01-15T14:27:17.799Z,43.71
2019-01-15T14:30:03.302Z,44.64
2019-01-15T14:32:49.340Z,45.06
2019-01-15T14:35:35.200Z,46.02
2019-01-15T14:38:27.178Z,46.16
2019-01-15T14:41:33.072Z,46.38
2019-01-15T14:44:20.278Z,46.50
2019-01-15T14:47:06.396Z,46.96
2019-01-15T14:49:59.384Z,46.80
2019-01-15T14:52:47.767Z,47.54
2019-01-15T14:55:40.816Z,48.26
2019-01-15T14:58:30.493Z,48.22
2019-01-15T15:01:29.713Z,49.06
2019-01-15T15:04:10.065Z,49.29
2019-01-15T15:06:50.348Z,49.80
2019-01-15T15:09:40.142Z,49.83
2019-01-15T15:12:26.265Z,50.18
2019-01-15T15:15:25.427Z,50.18
2019-01-15T15:18:21.181Z,50.57
2019-01-15T15:21:17.160Z,50.59
2019-01-15T15:24:02.129Z,51.62
2019-01-15T15:26:52.074Z,51.14
2019-01-15T15:29:39.362Z,51.60
2019-01-15T15:32:32.284Z,51.81
2019-01-15T15:35:28.393Z,52.09
2019-01-15T15:38:24.617Z,52.24
2019-01-15T15:41:29.981Z,51.93
2019-01-15T15:44:06.102Z,51.69
2019-01-15T15:47:05.494Z,51.82
2019-01-15T15:50:07.893Z,51.31
2019-01-15T15:52:53.541Z,51.96
2019-01-15T15:55:32.467Z,52.13
2019-01-15T15:58:18.544Z,51.80
2019-01-15T16:01:14.710Z,52.21
2019-01-15T16:04:07.879Z,52.38
2019-01-15T16:06:53.803Z,53.41
2019-01-15T16:09:40.988Z,53.24
2019-01-15T16:12:40.561Z,52.58
2019-01-15T16:15:18.970Z,52.46
2019-01-15T16:17:57.361Z,52.56
2019-01-15T16:20:47.243Z,53.42
2019-01-15T16:23:52.474Z,52.80
2019-01-15T16:26:26.840Z,52.89
2019-01-15T16:29:13.157Z,53.49
2019-01-15T16:32:07.143Z,53.85
2019-01-15T16:35:12.954Z,53.90
2019-01-15T16:37:58.896Z,54.24
2019-01-15T16:40:45.589Z,53.81
2019-01-15T16:43:32.850Z,54.56
2019-01-15T16:46:18.714Z,55.44
2019-01-15T16:49:11.751Z,55.65
2019-01-15T16:52:04.752Z,56.91
2019-01-15T16:54:54.753Z,58.05
2019-01-15T16:57:32.086Z,58.92
2019-01-15T17:00:21.264Z,59.47
2019-01-15T17:03:11.251Z,60.78
2019-01-15T17:06:16.306Z,60.98
2019-01-15T17:09:02.404Z,61.28
2019-01-15T17:11:50.652Z,62.30
2019-01-15T17:14:56.024Z,62.73
2019-01-15T17:17:55.168Z,63.00
2019-01-15T17:20:45.016Z,63.25
2019-01-15T17:23:40.951Z,63.70
2019-01-15T17:26:23.403Z,64.08
2019-01-15T17:29:15.188Z,64.09
2019-01-15T17:32:02.422Z,65.18
2019-01-15T17:34:44.107Z,64.82
2019-01-15T17:37:49.485Z,65.42
2019-01-15T17:40:36.750Z,66.17
2019-01-15T17:43:28.129Z,66.59
2019-01-15T17:46:18.238Z,66.89
2019-01-15T17:49:03.800Z,67.07
2019-01-15T17:51:53.679Z,67.07
2019-01-15T17:54:55.983Z,67.52
2019-01-15T17:57:55.401Z,67.35
2019-01-15T18:00:34.569Z,67.65
2019-01-15T18:03:26.858Z,68.42
2019-01-15T18:06:18.775Z,67.85
2019-01-15T18:09:14.778Z,68.33
2019-01-15T18:12:18.534Z,68.77
2019-01-15T18:15:08.662Z,69.13
2019-01-15T18:17:55.862Z,68.82
2019-01-15T18:20:45.846Z,68.86
2019-01-15T18:23:31.652Z,69.41
2019-01-15T18:26:38.499Z,70.40
2019-01-15T18:29:42.617Z,69.64
2019-01-15T18:32:38.839Z,70.13
2019-01-15T18:35:25.228Z,69.87
2019-01-15T18:38:12.535Z,69.84
2019-01-15T18:41:00.342Z,70.18
2019-01-15T18:43:50.163Z,70.20
2019-01-15T18:46:44.794Z,70.81
2019-01-15T18:49:38.130Z,71.73
2019-01-15T18:52:34.219Z,71.71
2019-01-15T18:55:26.498Z,71.81
2019-01-15T18:58:12.384Z,72.11
2019-01-15T19:01:05.711Z,72.34
2019-01-15T19:03:51.743Z,72.41
2019-01-15T19:06:39.156Z,72.81
2019-01-15T19:09:29.739Z,72.77
2019-01-15T19:12:08.988Z,72.40
2019-01-15T19:15:08.874Z,73.13
2019-01-15T19:18:02.255Z,72.86
2019-01-15T19:20:52.214Z,73.18
2019-01-15T19:23:51.414Z,73.56
2019-01-15T19:26:37.451Z,73.44
2019-01-15T19:29:23.541Z,73.94
2019-01-15T19:32:10.024Z,73.45
2019-01-15T19:34:55.800Z,73.14
2019-01-15T19:37:55.423Z,73.87
2019-01-15T19:40:42.653Z,73.64
2019-01-15T19:43:30.131Z,73.77
2019-01-15T19:46:30.217Z,74.41
2019-01-15T19:49:26.336Z,74.61
2019-01-15T19:52:13.560Z,74.49
2019-01-15T19:54:59.682Z,75.01
2019-01-15T19:57:39.924Z,75.13
2019-01-15T20:00:22.060Z,75.69
2019-01-15T20:03:09.258Z,75.62
2019-01-15T20:05:59.814Z,76.05
2019-01-15T20:09:04.154Z,75.67
2019-01-15T20:11:56.144Z,75.58
2019-01-15T20:14:45.243Z,75.63
2019-01-15T20:17:52.974Z,75.65
2019-01-15T20:20:58.679Z,75.89
2019-01-15T20:23:46.174Z,75.60
2019-01-15T20:26:32.374Z,75.63
2019-01-15T20:29:18.386Z,76.21
2019-01-15T20:32:07.339Z,76.34
2019-01-15T20:35:01.661Z,76.82
2019-01-15T20:37:45.860Z,76.04
2019-01-15T20:40:36.150Z,76.30
2019-01-15T20:43:28.215Z,76.34
2019-01-15T20:46:08.098Z,77.17
2019-01-15T20:48:52.447Z,76.36
2019-01-15T20:51:39.586Z,76.15
2019-01-15T20:54:24.086Z,76.35
2019-01-15T20:57:09.071Z,76.32
2019-01-15T21:00:04.184Z,76.61
2019-01-15T21:02:45.244Z,76.98
2019-01-15T21:05:31.030Z,77.21
2019-01-15T21:08:18.183Z,77.41
2019-01-15T21:11:14.629Z,77.49
2019-01-15T21:14:01.867Z,77.95
2019-01-15T21:16:47.760Z,78.40
2019-01-15T21:19:49.841Z,78.63
2019-01-15T21:22:39.745Z,78.85
2019-01-15T21:25:27.004Z,78.99
2019-01-15T21:28:20.090Z,79.20
2019-01-15T21:31:13.609Z,78.57
2019-01-15T21:34:13.260Z,78.89
2019-01-15T21:36:58.902Z,78.91
2019-01-15T21:39:46.075Z,79.55
2019-01-15T21:42:38.919Z,79.56
2019-01-15T21:45:26.274Z,79.57
2019-01-15T21:48:04.000Z,79.86
2019-01-15T21:51:06.138Z,80.09
2019-01-15T21:54:03.429Z,79.55
2019-01-15T21:57:01.057Z,79.79
2019-01-15T21:59:45.059Z,79.87
2019-01-15T22:02:32.290Z,79.96
2019-01-15T22:05:25.717Z,80.34
2019-01-15T22:08:11.408Z,80.35
2019-01-15T22:10:57.143Z,80.21
2019-01-15T22:13:56.481Z,80.22
2019-01-15T22:16:58.972Z,80.48
2019-01-15T22:19:49.152Z,80.43
2019-01-15T22:22:39.473Z,80.51
2019-01-15T22:25:36.457Z,80.16
2019-01-15T22:28:22.511Z,80.46
2019-01-15T22:31:18.904Z,80.67
2019-01-15T22:34:21.215Z,80.89
2019-01-15T22:37:17.494Z,80.99
2019-01-15T22:40:03.005Z,80.68
2019-01-15T22:42:38.425Z,81.09
2019-01-15T22:45:36.122Z,81.23
2019-01-15T22:48:27.070Z,81.16
2019-01-15T22:51:11.421Z,81.29
2019-01-15T22:53:59.210Z,81.11
2019-01-15T22:56:54.973Z,81.43
2019-01-15T22:59:41.079Z,81.39
2019-01-15T23:02:26.665Z,81.60
2019-01-15T23:05:13.082Z,81.69
2019-01-15T23:08:12.398Z,82.27
2019-01-15T23:11:14.982Z,81.75
2019-01-15T23:14:05.864Z,81.79
2019-01-15T23:16:41.823Z,81.50
2019-01-15T23:19:34.834Z,81.95
2019-01-15T23:22:27.544Z,81.98
2019-01-15T23:25:14.750Z,81.81
2019-01-15T23:28:00.330Z,82.56
2019-01-15T23:30:50.535Z,82.10
2019-01-15T23:33:38.050Z,82.53
2019-01-15T23:36:18.613Z,82.68
2019-01-15T23:39:12.036Z,82.91
2019-01-15T23:42:02.027Z,83.05
2019-01-15T23:44:42.756Z,83.01
2019-01-15T23:47:26.174Z,82.78
2019-01-15T23:50:19.093Z,82.75
2019-01-15T23:53:08.820Z,82.83
2019-01-15T23:55:54.228Z,82.60
2019-01-15T23:58:59.432Z,83.27
